sensor_id;sensor_type;location;lat;lon;timestamp;P1;durP1;ratioP1;P2;durP2;ratioP2
28343;SDS011;15597;50.914;6.638;2023-02-25T14:06:16;9.77;;;1.92;;
28343;SDS011;15597;50.914;6.638;2023-02-25T14:09:06;8.63;;;1.70;;
28343;SDS011;15597;50.914;6.638;2023-02-25T14:14:49;9.23;;;1.77;;
28343;SDS011;15597;50.914;6.638;2023-02-25T14:17:37;5.13;;;1.75;;
28343;SDS011;15597;50.914;6.638;2023-02-25T14:23:25;5.90;;;1.85;;
28343;SDS011;15597;50.914;6.638;2023-02-25T14:29:06;5.75;;;1.40;;
28343;SDS011;15597;50.914;6.638;2023-02-25T14:34:49;4.43;;;1.65;;
28343;SDS011;15597;50.914;6.638;2023-02-25T14:37:37;6.45;;;1.60;;
28343;SDS011;15597;50.914;6.638;2023-02-25T14:45:23;6.13;;;1.58;;
28343;SDS011;15597;50.914;6.638;2023-02-25T14:47:58;6.05;;;1.60;;
28343;SDS011;15597;50.914;6.638;2023-02-25T14:50:28;6.05;;;1.23;;
28343;SDS011;15597;50.914;6.638;2023-02-25T15:12:20;4.45;;;1.52;;
28343;SDS011;15597;50.914;6.638;2023-02-25T15:14:58;7.72;;;1.70;;
28343;SDS011;15597;50.914;6.638;2023-02-25T15:33:33;7.72;;;1.48;;
28343;SDS011;15597;50.914;6.638;2023-02-25T15:43:56;6.32;;;1.23;;
28343;SDS011;15597;50.914;6.638;2023-02-25T15:49:12;7.00;;;1.48;;
28343;SDS011;15597;50.914;6.638;2023-02-25T15:51:44;7.90;;;1.50;;
28343;SDS011;15597;50.914;6.638;2023-02-25T15:56:53;5.60;;;1.50;;
28343;SDS011;15597;50.914;6.638;2023-02-25T16:07:30;3.28;;;0.80;;
28343;SDS011;15597;50.914;6.638;2023-02-25T16:10:04;6.18;;;1.48;;
28343;SDS011;15597;50.914;6.638;2023-02-25T16:12:34;4.60;;;0.95;;
28343;SDS011;15597;50.914;6.638;2023-02-25T16:15:02;5.15;;;1.08;;
28343;SDS011;15597;50.914;6.638;2023-02-25T16:17:30;5.45;;;1.30;;
28343;SDS011;15597;50.914;6.638;2023-02-25T16:19:59;5.47;;;1.48;;
28343;SDS011;15597;50.914;6.638;2023-02-25T16:22:33;4.30;;;1.30;;
28343;SDS011;15597;50.914;6.638;2023-02-25T16:24:59;5.30;;;1.10;;
28343;SDS011;15597;50.914;6.638;2023-02-25T16:33:28;3.15;;;1.02;;
28343;SDS011;15597;50.914;6.638;2023-02-25T16:39:02;6.93;;;1.65;;
28343;SDS011;15597;50.914;6.638;2023-02-25T16:41:31;3.70;;;1.20;;
28343;SDS011;15597;50.914;6.638;2023-02-25T16:43:58;6.07;;;1.50;;
28343;SDS011;15597;50.914;6.638;2023-02-25T16:46:27;16.88;;;5.35;;
28343;SDS011;15597;50.914;6.638;2023-02-25T16:48:56;5.68;;;2.30;;
28343;SDS011;15597;50.914;6.638;2023-02-25T16:51:30;6.55;;;1.70;;
28343;SDS011;15597;50.914;6.638;2023-02-25T16:54:32;5.72;;;1.30;;
28343;SDS011;15597;50.914;6.638;2023-02-25T16:56:57;4.50;;;1.13;;
28343;SDS011;15597;50.914;6.638;2023-02-25T16:59:25;4.82;;;1.17;;
28343;SDS011;15597;50.914;6.638;2023-02-25T17:04:27;6.55;;;1.85;;
28343;SDS011;15597;50.914;6.638;2023-02-25T17:07:28;6.22;;;1.40;;
28343;SDS011;15597;50.914;6.638;2023-02-25T17:09:48;4.32;;;1.08;;
28343;SDS011;15597;50.914;6.638;2023-02-25T17:12:17;5.43;;;1.50;;
28343;SDS011;15597;50.914;6.638;2023-02-25T17:14:48;5.30;;;1.45;;
28343;SDS011;15597;50.914;6.638;2023-02-25T17:17:34;5.88;;;1.40;;
28343;SDS011;15597;50.914;6.638;2023-02-25T17:20:03;4.43;;;1.55;;
28343;SDS011;15597;50.914;6.638;2023-02-25T17:22:33;4.63;;;1.38;;
28343;SDS011;15597;50.914;6.638;2023-02-25T17:25:02;4.40;;;1.52;;
28343;SDS011;15597;50.914;6.638;2023-02-25T17:27:29;9.05;;;1.92;;
28343;SDS011;15597;50.914;6.638;2023-02-25T17:29:55;5.50;;;1.77;;
28343;SDS011;15597;50.914;6.638;2023-02-25T17:32:25;6.80;;;1.65;;
28343;SDS011;15597;50.914;6.638;2023-02-25T17:34:53;5.85;;;1.50;;
28343;SDS011;15597;50.914;6.638;2023-02-25T17:37:22;5.30;;;1.90;;
28343;SDS011;15597;50.914;6.638;2023-02-25T17:39:51;7.35;;;2.72;;
28343;SDS011;15597;50.914;6.638;2023-02-25T17:42:33;4.45;;;1.08;;
28343;SDS011;15597;50.914;6.638;2023-02-25T17:45:02;4.45;;;1.60;;
28343;SDS011;15597;50.914;6.638;2023-02-25T17:47:32;6.28;;;2.00;;
28343;SDS011;15597;50.914;6.638;2023-02-25T17:52:55;3.70;;;1.40;;
28343;SDS011;15597;50.914;6.638;2023-02-25T17:55:43;6.35;;;2.25;;
28343;SDS011;15597;50.914;6.638;2023-02-25T17:58:13;4.38;;;1.40;;
28343;SDS011;15597;50.914;6.638;2023-02-25T18:00:59;5.15;;;1.45;;
28343;SDS011;15597;50.914;6.638;2023-02-25T18:03:26;6.93;;;1.40;;
28343;SDS011;15597;50.914;6.638;2023-02-25T18:05:55;6.07;;;1.40;;
28343;SDS011;15597;50.914;6.638;2023-02-25T18:08:29;5.63;;;1.30;;
28343;SDS011;15597;50.914;6.638;2023-02-25T18:11:25;7.55;;;1.50;;
28343;SDS011;15597;50.914;6.638;2023-02-25T18:13:53;5.03;;;1.58;;
28343;SDS011;15597;50.914;6.638;2023-02-25T18:16:52;8.73;;;1.73;;
28343;SDS011;15597;50.914;6.638;2023-02-25T18:19:21;6.50;;;1.42;;
28343;SDS011;15597;50.914;6.638;2023-02-25T18:21:50;3.78;;;1.40;;
28343;SDS011;15597;50.914;6.638;2023-02-25T18:24:20;6.60;;;1.80;;
28343;SDS011;15597;50.914;6.638;2023-02-25T18:29:31;8.55;;;2.25;;
28343;SDS011;15597;50.914;6.638;2023-02-25T18:31:58;6.43;;;1.98;;
28343;SDS011;15597;50.914;6.638;2023-02-25T18:34:24;8.00;;;1.80;;
28343;SDS011;15597;50.914;6.638;2023-02-25T18:36:49;6.35;;;1.58;;
28343;SDS011;15597;50.914;6.638;2023-02-25T18:39:15;9.13;;;1.60;;
28343;SDS011;15597;50.914;6.638;2023-02-25T18:41:42;5.07;;;1.45;;
28343;SDS011;15597;50.914;6.638;2023-02-25T18:44:11;5.45;;;1.65;;
28343;SDS011;15597;50.914;6.638;2023-02-25T18:46:41;5.45;;;1.50;;
28343;SDS011;15597;50.914;6.638;2023-02-25T18:49:07;4.70;;;1.40;;
28343;SDS011;15597;50.914;6.638;2023-02-25T18:51:32;4.10;;;1.40;;
28343;SDS011;15597;50.914;6.638;2023-02-25T18:53:58;6.80;;;1.80;;
28343;SDS011;15597;50.914;6.638;2023-02-25T18:56:26;7.40;;;1.50;;
28343;SDS011;15597;50.914;6.638;2023-02-25T18:58:52;3.85;;;1.20;;
28343;SDS011;15597;50.914;6.638;2023-02-25T19:01:22;4.40;;;1.15;;
28343;SDS011;15597;50.914;6.638;2023-02-25T19:03:51;4.68;;;1.35;;
28343;SDS011;15597;50.914;6.638;2023-02-25T19:06:27;4.72;;;1.70;;
28343;SDS011;15597;50.914;6.638;2023-02-25T19:08:55;7.70;;;2.50;;
28343;SDS011;15597;50.914;6.638;2023-02-25T19:11:24;7.60;;;2.90;;
28343;SDS011;15597;50.914;6.638;2023-02-25T19:14:03;6.65;;;1.80;;
28343;SDS011;15597;50.914;6.638;2023-02-25T19:16:30;6.80;;;2.95;;
28343;SDS011;15597;50.914;6.638;2023-02-25T19:18:58;5.75;;;2.40;;
28343;SDS011;15597;50.914;6.638;2023-02-25T19:21:24;7.57;;;1.90;;
28343;SDS011;15597;50.914;6.638;2023-02-25T19:23:49;7.28;;;2.42;;
28343;SDS011;15597;50.914;6.638;2023-02-25T19:26:15;6.07;;;1.92;;
28343;SDS011;15597;50.914;6.638;2023-02-25T19:28:40;6.93;;;1.33;;
28343;SDS011;15597;50.914;6.638;2023-02-25T19:31:06;4.63;;;1.50;;
28343;SDS011;15597;50.914;6.638;2023-02-25T19:33:33;5.93;;;1.77;;
28343;SDS011;15597;50.914;6.638;2023-02-25T19:36:00;4.13;;;1.40;;
28343;SDS011;15597;50.914;6.638;2023-02-25T19:38:27;4.93;;;1.40;;
28343;SDS011;15597;50.914;6.638;2023-02-25T19:40:53;5.28;;;1.60;;
28343;SDS011;15597;50.914;6.638;2023-02-25T19:43:18;4.93;;;1.50;;
28343;SDS011;15597;50.914;6.638;2023-02-25T19:45:44;3.90;;;1.52;;
28343;SDS011;15597;50.914;6.638;2023-02-25T19:48:09;6.70;;;1.77;;
28343;SDS011;15597;50.914;6.638;2023-02-25T19:50:35;9.35;;;1.83;;
28343;SDS011;15597;50.914;6.638;2023-02-25T19:53:02;7.07;;;1.70;;
28343;SDS011;15597;50.914;6.638;2023-02-25T19:55:29;4.80;;;1.50;;
28343;SDS011;15597;50.914;6.638;2023-02-25T19:57:55;4.97;;;1.50;;
28343;SDS011;15597;50.914;6.638;2023-02-25T20:00:21;6.88;;;1.80;;
28343;SDS011;15597;50.914;6.638;2023-02-25T20:02:48;6.47;;;1.65;;
28343;SDS011;15597;50.914;6.638;2023-02-25T20:05:15;5.93;;;1.30;;
28343;SDS011;15597;50.914;6.638;2023-02-25T20:07:40;5.88;;;1.55;;
28343;SDS011;15597;50.914;6.638;2023-02-25T20:10:07;6.35;;;1.55;;
28343;SDS011;15597;50.914;6.638;2023-02-25T20:12:39;4.60;;;1.45;;
28343;SDS011;15597;50.914;6.638;2023-02-25T20:15:05;5.30;;;1.65;;
28343;SDS011;15597;50.914;6.638;2023-02-25T20:17:34;5.70;;;1.45;;
28343;SDS011;15597;50.914;6.638;2023-02-25T20:20:03;5.57;;;1.50;;
28343;SDS011;15597;50.914;6.638;2023-02-25T20:22:29;5.82;;;1.40;;
28343;SDS011;15597;50.914;6.638;2023-02-25T20:24:55;6.63;;;1.20;;
28343;SDS011;15597;50.914;6.638;2023-02-25T20:27:21;3.83;;;1.35;;
28343;SDS011;15597;50.914;6.638;2023-02-25T20:29:46;4.53;;;1.40;;
28343;SDS011;15597;50.914;6.638;2023-02-25T20:32:12;5.25;;;1.52;;
28343;SDS011;15597;50.914;6.638;2023-02-25T20:34:37;5.15;;;1.45;;
28343;SDS011;15597;50.914;6.638;2023-02-25T20:37:17;5.65;;;1.40;;
28343;SDS011;15597;50.914;6.638;2023-02-25T20:39:51;4.60;;;1.50;;
28343;SDS011;15597;50.914;6.638;2023-02-25T20:42:20;5.68;;;1.52;;
28343;SDS011;15597;50.914;6.638;2023-02-25T20:44:47;5.65;;;1.33;;
28343;SDS011;15597;50.914;6.638;2023-02-25T20:47:15;6.05;;;1.40;;
28343;SDS011;15597;50.914;6.638;2023-02-25T20:49:44;4.75;;;1.42;;
28343;SDS011;15597;50.914;6.638;2023-02-25T20:52:10;4.45;;;1.33;;
28343;SDS011;15597;50.914;6.638;2023-02-25T20:54:38;5.60;;;1.55;;
28343;SDS011;15597;50.914;6.638;2023-02-25T20:57:04;4.10;;;1.33;;
28343;SDS011;15597;50.914;6.638;2023-02-25T20:59:29;4.22;;;1.42;;
28343;SDS011;15597;50.914;6.638;2023-02-25T21:01:55;5.35;;;1.48;;
28343;SDS011;15597;50.914;6.638;2023-02-25T21:04:22;6.45;;;1.38;;
28343;SDS011;15597;50.914;6.638;2023-02-25T21:06:47;4.03;;;1.35;;
28343;SDS011;15597;50.914;6.638;2023-02-25T21:09:13;4.38;;;1.33;;
28343;SDS011;15597;50.914;6.638;2023-02-25T21:11:39;7.07;;;1.42;;
28343;SDS011;15597;50.914;6.638;2023-02-25T21:14:06;6.65;;;1.42;;
28343;SDS011;15597;50.914;6.638;2023-02-25T21:16:35;4.55;;;1.40;;
28343;SDS011;15597;50.914;6.638;2023-02-25T21:19:02;5.00;;;1.35;;
28343;SDS011;15597;50.914;6.638;2023-02-25T21:21:29;6.63;;;1.77;;
28343;SDS011;15597;50.914;6.638;2023-02-25T21:24:01;7.72;;;1.92;;
28343;SDS011;15597;50.914;6.638;2023-02-25T21:26:30;9.27;;;2.25;;
28343;SDS011;15597;50.914;6.638;2023-02-25T21:28:56;8.85;;;2.90;;
28343;SDS011;15597;50.914;6.638;2023-02-25T21:31:21;8.93;;;2.30;;
28343;SDS011;15597;50.914;6.638;2023-02-25T21:33:47;9.18;;;2.80;;
28343;SDS011;15597;50.914;6.638;2023-02-25T21:36:12;9.38;;;2.55;;
28343;SDS011;15597;50.914;6.638;2023-02-25T21:38:38;8.50;;;2.53;;
28343;SDS011;15597;50.914;6.638;2023-02-25T21:41:05;11.95;;;2.67;;
28343;SDS011;15597;50.914;6.638;2023-02-25T21:43:35;6.60;;;1.83;;
28343;SDS011;15597;50.914;6.638;2023-02-25T21:46:01;8.98;;;2.20;;
28343;SDS011;15597;50.914;6.638;2023-02-25T21:48:28;5.07;;;1.60;;
28343;SDS011;15597;50.914;6.638;2023-02-25T21:50:54;7.40;;;1.90;;
28343;SDS011;15597;50.914;6.638;2023-02-25T21:53:20;4.28;;;1.70;;
28343;SDS011;15597;50.914;6.638;2023-02-25T21:55:46;6.97;;;1.73;;
28343;SDS011;15597;50.914;6.638;2023-02-25T21:58:12;10.43;;;2.15;;
28343;SDS011;15597;50.914;6.638;2023-02-25T22:00:38;7.05;;;2.13;;
28343;SDS011;15597;50.914;6.638;2023-02-25T22:03:05;10.68;;;2.35;;
28343;SDS011;15597;50.914;6.638;2023-02-25T22:05:35;6.97;;;2.10;;
28343;SDS011;15597;50.914;6.638;2023-02-25T22:08:01;7.72;;;2.30;;
28343;SDS011;15597;50.914;6.638;2023-02-25T22:10:27;8.52;;;2.42;;
28343;SDS011;15597;50.914;6.638;2023-02-25T22:12:53;7.03;;;2.50;;
28343;SDS011;15597;50.914;6.638;2023-02-25T22:15:19;6.18;;;2.08;;
28343;SDS011;15597;50.914;6.638;2023-02-25T22:17:45;7.43;;;2.95;;
28343;SDS011;15597;50.914;6.638;2023-02-25T22:20:10;10.55;;;4.25;;
28343;SDS011;15597;50.914;6.638;2023-02-25T22:22:36;10.27;;;4.43;;
28343;SDS011;15597;50.914;6.638;2023-02-25T22:25:02;6.47;;;1.90;;
28343;SDS011;15597;50.914;6.638;2023-02-25T22:27:30;10.07;;;4.05;;
28343;SDS011;15597;50.914;6.638;2023-02-25T22:29:56;10.60;;;3.67;;
28343;SDS011;15597;50.914;6.638;2023-02-25T22:32:21;15.15;;;4.55;;
28343;SDS011;15597;50.914;6.638;2023-02-25T22:34:47;9.05;;;2.67;;
28343;SDS011;15597;50.914;6.638;2023-02-25T22:37:13;6.45;;;2.63;;
28343;SDS011;15597;50.914;6.638;2023-02-25T22:39:38;5.88;;;1.67;;
28343;SDS011;15597;50.914;6.638;2023-02-25T22:42:04;6.20;;;2.03;;
28343;SDS011;15597;50.914;6.638;2023-02-25T22:44:30;7.63;;;3.17;;
28343;SDS011;15597;50.914;6.638;2023-02-25T22:46:55;7.25;;;2.55;;
28343;SDS011;15597;50.914;6.638;2023-02-25T22:49:21;9.43;;;3.58;;
28343;SDS011;15597;50.914;6.638;2023-02-25T22:51:46;9.63;;;3.30;;
28343;SDS011;15597;50.914;6.638;2023-02-25T22:54:13;10.70;;;3.25;;
28343;SDS011;15597;50.914;6.638;2023-02-25T22:56:40;7.40;;;2.97;;
28343;SDS011;15597;50.914;6.638;2023-02-25T22:59:07;6.93;;;2.30;;
28343;SDS011;15597;50.914;6.638;2023-02-25T23:01:33;6.22;;;2.88;;
28343;SDS011;15597;50.914;6.638;2023-02-25T23:03:59;6.60;;;2.33;;
28343;SDS011;15597;50.914;6.638;2023-02-25T23:06:26;7.18;;;2.20;;
28343;SDS011;15597;50.914;6.638;2023-02-25T23:08:54;5.28;;;1.60;;
28343;SDS011;15597;50.914;6.638;2023-02-25T23:11:21;7.93;;;2.20;;
28343;SDS011;15597;50.914;6.638;2023-02-25T23:13:51;7.28;;;1.90;;
28343;SDS011;15597;50.914;6.638;2023-02-25T23:16:32;6.70;;;1.83;;
28343;SDS011;15597;50.914;6.638;2023-02-25T23:19:00;5.80;;;2.00;;
28343;SDS011;15597;50.914;6.638;2023-02-25T23:21:27;5.72;;;1.85;;
28343;SDS011;15597;50.914;6.638;2023-02-25T23:23:55;6.43;;;2.15;;
28343;SDS011;15597;50.914;6.638;2023-02-25T23:26:23;9.02;;;2.80;;
28343;SDS011;15597;50.914;6.638;2023-02-25T23:28:54;6.78;;;2.28;;
28343;SDS011;15597;50.914;6.638;2023-02-25T23:31:22;6.70;;;1.90;;
28343;SDS011;15597;50.914;6.638;2023-02-25T23:33:57;9.30;;;2.42;;
28343;SDS011;15597;50.914;6.638;2023-02-25T23:36:24;5.03;;;1.55;;
28343;SDS011;15597;50.914;6.638;2023-02-25T23:38:51;5.50;;;1.88;;
28343;SDS011;15597;50.914;6.638;2023-02-25T23:41:21;8.60;;;1.90;;
28343;SDS011;15597;50.914;6.638;2023-02-25T23:43:50;5.28;;;1.67;;
28343;SDS011;15597;50.914;6.638;2023-02-25T23:46:17;4.85;;;1.67;;
28343;SDS011;15597;50.914;6.638;2023-02-25T23:48:42;5.97;;;1.52;;
28343;SDS011;15597;50.914;6.638;2023-02-25T23:51:08;6.60;;;1.63;;
28343;SDS011;15597;50.914;6.638;2023-02-25T23:53:34;5.78;;;1.50;;
28343;SDS011;15597;50.914;6.638;2023-02-25T23:56:17;4.30;;;1.52;;
28343;SDS011;15597;50.914;6.638;2023-02-25T23:58:46;6.30;;;1.58;;
